This is the latest recevied weather packets stored in our database for station/object GW7287. If no packets are shown the sender has not sent any weather packets the latest 10 day(s).
| Time | Temp. | Humidity | Pressure | Rain* | Wind** | Luminosity | Snow |
|---|---|---|---|---|---|---|---|
| 1787585360 | 25° C | 39% | 927.5 hPa | - | - | - | - |
| 1787582089 | 25° C | 39% | 927.5 hPa | - | - | - | - |
| 1787581946 | 25° C | 39% | 927.5 hPa | - | - | - | - |
| 1787579063 | 23.89° C | 45% | 927.7 hPa | - | - | - | - |
| 1787578927 | 23.89° C | 45% | 927.7 hPa | - | - | - | - |
| 1787574908 | 23.89° C | 44% | 928 hPa | - | - | - | - |
| 1787574505 | 23.33° C | 46% | 928.3 hPa | - | - | - | - |
| 1787572286 | 23.33° C | 46% | 928.3 hPa | - | - | - | - |
| 1787570451 | 21.11° C | 56% | 928.5 hPa | - | - | - | - |
| 1787570299 | 21.11° C | 56% | 928.5 hPa | - | - | - | - |
| 1787567461 | 21.11° C | 56% | 928.5 hPa | - | - | - | - |
| 1787567307 | 20° C | 66% | 928.5 hPa | - | - | - | - |
| 1787564360 | 20° C | 66% | 928.5 hPa | - | - | - | - |
| 1787564193 | 20° C | 66% | 928.5 hPa | - | - | - | - |
| 1787560777 | 19.44° C | 65% | 928.6 hPa | - | - | - | - |
| 1787560594 | 19.44° C | 65% | 928.6 hPa | - | - | - | - |
| 1787557809 | 19.44° C | 66% | 928.6 hPa | - | - | - | - |
| 1787556910 | 19.44° C | 66% | 928.6 hPa | - | - | - | - |
| 1787553445 | 17.78° C | 64% | 928 hPa | - | - | - | - |
| 1787551281 | 17.78° C | 64% | 927.8 hPa | - | - | - | - |
| 1787549411 | 17.78° C | 64% | 927.8 hPa | - | - | - | - |
| 1787548178 | 18.89° C | 60% | 928.3 hPa | - | - | - | - |
| 1787546133 | 18.89° C | 60% | 928.3 hPa | - | - | - | - |
| 1787545351 | 19.44° C | 43% | 928.2 hPa | - | - | - | - |
| 1787543094 | 19.44° C | 43% | 928.2 hPa | - | - | - | - |
* Rain since midnight (hover to see other rain measurements)
** Current wind speed in m/s (hover to see current wind gust speed)